sensor_id;sensor_type;location;lat;lon;timestamp;P1;durP1;ratioP1;P2;durP2;ratioP2
10383;SDS011;5238;43.508;4.980;2023-03-14T00:01:26;1.17;;;0.85;;
10383;SDS011;5238;43.508;4.980;2023-03-14T00:03:58;2.05;;;1.35;;
10383;SDS011;5238;43.508;4.980;2023-03-14T00:06:28;0.80;;;0.80;;
10383;SDS011;5238;43.508;4.980;2023-03-14T00:08:56;1.10;;;1.00;;
10383;SDS011;5238;43.508;4.980;2023-03-14T00:11:25;0.85;;;0.73;;
10383;SDS011;5238;43.508;4.980;2023-03-14T00:13:56;5.63;;;1.20;;
10383;SDS011;5238;43.508;4.980;2023-03-14T00:42:43;0.80;;;0.80;;
10383;SDS011;5238;43.508;4.980;2023-03-14T00:47:52;1.00;;;0.80;;
10383;SDS011;5238;43.508;4.980;2023-03-14T00:50:22;0.80;;;0.80;;
10383;SDS011;5238;43.508;4.980;2023-03-14T00:52:51;1.35;;;1.08;;
10383;SDS011;5238;43.508;4.980;2023-03-14T01:01:41;1.80;;;1.27;;
10383;SDS011;5238;43.508;4.980;2023-03-14T01:07:27;0.75;;;0.75;;
10383;SDS011;5238;43.508;4.980;2023-03-14T01:10:08;1.08;;;0.80;;
10383;SDS011;5238;43.508;4.980;2023-03-14T01:12:37;1.50;;;0.70;;
10383;SDS011;5238;43.508;4.980;2023-03-14T01:15:19;0.80;;;0.77;;
10383;SDS011;5238;43.508;4.980;2023-03-14T01:17:47;1.10;;;0.77;;
10383;SDS011;5238;43.508;4.980;2023-03-14T01:20:14;1.38;;;0.90;;
10383;SDS011;5238;43.508;4.980;2023-03-14T01:23:07;1.25;;;1.10;;
10383;SDS011;5238;43.508;4.980;2023-03-14T01:25:54;2.38;;;1.15;;
10383;SDS011;5238;43.508;4.980;2023-03-14T01:32:16;1.83;;;1.60;;
10383;SDS011;5238;43.508;4.980;2023-03-14T01:34:43;1.27;;;1.17;;
10383;SDS011;5238;43.508;4.980;2023-03-14T01:37:11;1.67;;;1.30;;
10383;SDS011;5238;43.508;4.980;2023-03-14T01:39:46;1.90;;;0.90;;
10383;SDS011;5238;43.508;4.980;2023-03-14T01:42:20;1.50;;;1.05;;
10383;SDS011;5238;43.508;4.980;2023-03-14T01:44:51;2.33;;;0.85;;
10383;SDS011;5238;43.508;4.980;2023-03-14T01:48:14;1.10;;;0.80;;
10383;SDS011;5238;43.508;4.980;2023-03-14T01:50:47;0.60;;;0.60;;
10383;SDS011;5238;43.508;4.980;2023-03-14T01:56:58;1.65;;;0.80;;
10383;SDS011;5238;43.508;4.980;2023-03-14T01:59:55;0.60;;;0.60;;
10383;SDS011;5238;43.508;4.980;2023-03-14T02:02:58;1.90;;;1.25;;
10383;SDS011;5238;43.508;4.980;2023-03-14T02:05:29;0.90;;;0.80;;
10383;SDS011;5238;43.508;4.980;2023-03-14T02:08:01;0.68;;;0.60;;
10383;SDS011;5238;43.508;4.980;2023-03-14T02:10:58;1.38;;;1.10;;
10383;SDS011;5238;43.508;4.980;2023-03-14T02:13:33;1.25;;;0.80;;
10383;SDS011;5238;43.508;4.980;2023-03-14T02:19:13;0.70;;;0.60;;
10383;SDS011;5238;43.508;4.980;2023-03-14T02:22:49;0.70;;;0.70;;
10383;SDS011;5238;43.508;4.980;2023-03-14T02:25:48;0.98;;;0.70;;
10383;SDS011;5238;43.508;4.980;2023-03-14T02:28:57;0.70;;;0.70;;
10383;SDS011;5238;43.508;4.980;2023-03-14T02:31:40;0.90;;;0.90;;
10383;SDS011;5238;43.508;4.980;2023-03-14T02:41:05;1.20;;;1.10;;
10383;SDS011;5238;43.508;4.980;2023-03-14T02:43:35;0.70;;;0.70;;
10383;SDS011;5238;43.508;4.980;2023-03-14T02:46:07;1.08;;;0.73;;
10383;SDS011;5238;43.508;4.980;2023-03-14T03:01:42;1.02;;;0.90;;
10383;SDS011;5238;43.508;4.980;2023-03-14T03:20:29;1.95;;;1.45;;
10383;SDS011;5238;43.508;4.980;2023-03-14T03:22:58;0.95;;;0.90;;
10383;SDS011;5238;43.508;4.980;2023-03-14T03:28:25;0.90;;;0.63;;
10383;SDS011;5238;43.508;4.980;2023-03-14T03:30:58;0.70;;;0.70;;
10383;SDS011;5238;43.508;4.980;2023-03-14T03:33:38;1.00;;;0.75;;
10383;SDS011;5238;43.508;4.980;2023-03-14T03:36:14;1.48;;;1.38;;
10383;SDS011;5238;43.508;4.980;2023-03-14T03:44:33;3.50;;;1.00;;
10383;SDS011;5238;43.508;4.980;2023-03-14T03:47:53;1.70;;;1.05;;
10383;SDS011;5238;43.508;4.980;2023-03-14T03:50:25;2.15;;;0.77;;
10383;SDS011;5238;43.508;4.980;2023-03-14T03:56:03;2.88;;;1.00;;
10383;SDS011;5238;43.508;4.980;2023-03-14T03:58:34;1.45;;;0.98;;
10383;SDS011;5238;43.508;4.980;2023-03-14T04:01:09;3.78;;;1.15;;
10383;SDS011;5238;43.508;4.980;2023-03-14T04:03:36;2.22;;;1.40;;
10383;SDS011;5238;43.508;4.980;2023-03-14T04:06:17;1.70;;;0.77;;
10383;SDS011;5238;43.508;4.980;2023-03-14T04:11:30;3.50;;;2.03;;
10383;SDS011;5238;43.508;4.980;2023-03-14T04:17:56;2.50;;;1.25;;
10383;SDS011;5238;43.508;4.980;2023-03-14T04:20:42;2.80;;;1.00;;
10383;SDS011;5238;43.508;4.980;2023-03-14T04:23:11;3.80;;;1.00;;
10383;SDS011;5238;43.508;4.980;2023-03-14T04:25:40;5.07;;;1.92;;
10383;SDS011;5238;43.508;4.980;2023-03-14T04:28:17;3.22;;;0.93;;
10383;SDS011;5238;43.508;4.980;2023-03-14T04:30:54;3.65;;;1.13;;
10383;SDS011;5238;43.508;4.980;2023-03-14T04:33:28;3.97;;;1.13;;
10383;SDS011;5238;43.508;4.980;2023-03-14T04:36:03;4.55;;;1.20;;
10383;SDS011;5238;43.508;4.980;2023-03-14T04:38:39;3.10;;;1.10;;
10383;SDS011;5238;43.508;4.980;2023-03-14T04:41:06;4.10;;;1.58;;
10383;SDS011;5238;43.508;4.980;2023-03-14T04:46:56;6.55;;;1.52;;
10383;SDS011;5238;43.508;4.980;2023-03-14T04:49:35;6.93;;;1.20;;
10383;SDS011;5238;43.508;4.980;2023-03-14T04:52:04;3.85;;;1.58;;
10383;SDS011;5238;43.508;4.980;2023-03-14T04:54:33;3.70;;;2.35;;
10383;SDS011;5238;43.508;4.980;2023-03-14T04:57:01;4.55;;;1.83;;
10383;SDS011;5238;43.508;4.980;2023-03-14T04:59:32;3.25;;;1.10;;
10383;SDS011;5238;43.508;4.980;2023-03-14T05:02:03;4.45;;;1.20;;
10383;SDS011;5238;43.508;4.980;2023-03-14T05:08:00;3.45;;;1.52;;
10383;SDS011;5238;43.508;4.980;2023-03-14T05:13:25;6.22;;;1.65;;
10383;SDS011;5238;43.508;4.980;2023-03-14T11:19:34;2.55;;;1.00;;
